createdAt,value
2022-10-17T00:01:31.248Z,41.20
2022-10-17T00:03:59.970Z,46.57
2022-10-17T00:06:28.911Z,39.63
2022-10-17T00:08:57.787Z,40.17
2022-10-17T00:11:26.547Z,42.90
2022-10-17T00:13:58.091Z,35.30
2022-10-17T00:16:28.328Z,42.63
2022-10-17T00:18:57.463Z,41.43
2022-10-17T00:21:26.970Z,38.53
2022-10-17T00:23:56.158Z,47.23
2022-10-17T00:26:25.120Z,46.23
2022-10-17T00:28:54.958Z,39.13
2022-10-17T00:31:26.129Z,33.33
2022-10-17T00:33:55.117Z,38.00
2022-10-17T00:36:25.987Z,39.20
2022-10-17T00:38:57.401Z,41.97
2022-10-17T00:41:29.808Z,34.03
2022-10-17T00:44:02.563Z,36.77
2022-10-17T00:46:34.783Z,32.50
2022-10-17T00:49:07.812Z,31.07
2022-10-17T00:51:42.197Z,45.27
2022-10-17T00:54:14.194Z,42.90
2022-10-17T00:56:43.363Z,39.27
2022-10-17T00:59:14.246Z,41.40
2022-10-17T01:01:49.939Z,45.27
2022-10-17T01:04:19.483Z,47.40
2022-10-17T01:06:48.063Z,42.23
2022-10-17T01:09:16.630Z,43.30
2022-10-17T01:11:52.561Z,42.90
2022-10-17T01:14:27.968Z,39.57
2022-10-17T01:17:08.914Z,40.73
2022-10-17T01:19:58.334Z,43.57
2022-10-17T01:22:34.458Z,49.20
2022-10-17T01:25:26.009Z,46.00
2022-10-17T01:28:06.339Z,38.53
2022-10-17T01:31:00.664Z,36.77
2022-10-17T01:33:47.644Z,32.17
2022-10-17T01:36:26.319Z,42.43
2022-10-17T01:39:00.034Z,30.37
2022-10-17T01:41:36.916Z,30.50
2022-10-17T01:44:11.428Z,29.50
2022-10-17T01:46:45.150Z,32.83
2022-10-17T01:49:16.812Z,31.37
2022-10-17T01:51:48.816Z,38.40
2022-10-17T01:54:24.515Z,37.47
2022-10-17T01:56:59.684Z,32.57
2022-10-17T01:59:33.177Z,31.37
2022-10-17T02:02:04.172Z,36.63
2022-10-17T02:04:33.002Z,39.07
2022-10-17T02:07:08.561Z,42.40
2022-10-17T02:09:37.607Z,39.83
2022-10-17T02:12:23.550Z,40.70
2022-10-17T02:15:06.266Z,45.97
2022-10-17T02:17:49.144Z,44.93
2022-10-17T02:20:24.751Z,41.37
2022-10-17T02:22:58.778Z,40.53
2022-10-17T02:25:37.011Z,44.73
2022-10-17T02:28:17.469Z,37.30
2022-10-17T02:30:52.952Z,39.07
2022-10-17T02:33:28.221Z,42.10
2022-10-17T02:36:04.130Z,44.00
2022-10-17T02:38:35.669Z,47.70
2022-10-17T02:41:06.319Z,44.10
2022-10-17T02:43:36.661Z,41.13
2022-10-17T02:46:08.084Z,41.43
2022-10-17T02:48:43.054Z,43.03
2022-10-17T02:51:19.094Z,47.27
2022-10-17T02:53:56.218Z,43.03
2022-10-17T02:56:27.933Z,48.33
2022-10-17T02:58:59.796Z,46.00
2022-10-17T03:01:30.507Z,42.73
2022-10-17T03:04:19.730Z,40.90
2022-10-17T03:06:50.152Z,42.53
2022-10-17T03:09:20.364Z,43.03
2022-10-17T03:11:49.136Z,43.77
2022-10-17T03:14:18.019Z,38.97
2022-10-17T03:16:46.682Z,42.93
2022-10-17T03:19:18.492Z,40.57
2022-10-17T03:21:47.404Z,41.53
2022-10-17T03:24:16.076Z,38.80
2022-10-17T03:29:15.508Z,40.83
2022-10-17T03:31:44.317Z,40.30
2022-10-17T03:34:13.175Z,47.93
2022-10-17T03:36:43.307Z,44.07
2022-10-17T03:39:12.014Z,50.10
2022-10-17T03:41:40.839Z,42.53
2022-10-17T03:44:09.578Z,54.43
2022-10-17T03:46:38.564Z,47.67
2022-10-17T03:49:08.149Z,44.83
2022-10-17T03:51:38.217Z,46.97
2022-10-17T03:54:13.188Z,44.87
2022-10-17T03:56:41.974Z,46.57
2022-10-17T03:59:15.683Z,45.33
2022-10-17T04:01:50.505Z,50.27
2022-10-17T04:04:20.332Z,47.13
2022-10-17T04:06:49.108Z,51.80
2022-10-17T04:09:19.929Z,52.10
2022-10-17T04:12:03.131Z,46.83
2022-10-17T04:14:33.099Z,53.60
2022-10-17T04:17:03.362Z,48.90
2022-10-17T04:19:33.136Z,50.83
2022-10-17T04:22:03.177Z,55.90
2022-10-17T04:24:36.936Z,56.23
2022-10-17T04:27:11.958Z,51.07
2022-10-17T04:29:45.391Z,58.47
2022-10-17T04:32:25.957Z,56.60
2022-10-17T04:35:02.989Z,56.97
2022-10-17T04:37:31.715Z,58.17
2022-10-17T04:40:06.506Z,58.27
2022-10-17T04:42:36.603Z,59.50
2022-10-17T04:45:06.884Z,53.77
2022-10-17T04:47:37.056Z,54.33
2022-10-17T04:50:06.851Z,53.67
2022-10-17T04:52:38.485Z,48.60
2022-10-17T04:55:09.503Z,47.70
2022-10-17T04:57:38.423Z,53.10
2022-10-17T05:00:25.751Z,54.53
2022-10-17T05:03:02.618Z,50.70
2022-10-17T05:05:32.032Z,60.57
2022-10-17T05:08:01.515Z,58.90
2022-10-17T05:10:39.011Z,60.27
2022-10-17T05:13:08.649Z,61.37
2022-10-17T05:15:38.332Z,65.40
2022-10-17T05:18:07.550Z,64.00
2022-10-17T05:20:37.088Z,64.47
2022-10-17T05:23:05.753Z,58.90
2022-10-17T05:25:40.443Z,62.73
2022-10-17T05:28:08.939Z,66.93
2022-10-17T05:30:38.190Z,67.30
2022-10-17T05:33:09.316Z,65.17
2022-10-17T05:35:38.076Z,71.10
2022-10-17T05:38:07.664Z,70.13
2022-10-17T05:40:38.605Z,68.37
2022-10-17T05:43:08.506Z,63.03
2022-10-17T05:45:37.906Z,68.90
2022-10-17T05:48:10.111Z,63.80
2022-10-17T05:50:38.678Z,66.00
2022-10-17T05:53:13.145Z,67.40
2022-10-17T05:55:46.838Z,75.20
2022-10-17T05:58:22.017Z,60.90
2022-10-17T06:00:59.449Z,62.90
2022-10-17T06:03:29.050Z,62.90
2022-10-17T06:05:58.123Z,59.53
2022-10-17T06:08:26.647Z,58.93
2022-10-17T06:10:55.114Z,60.37
2022-10-17T06:13:25.027Z,59.30
2022-10-17T06:15:54.964Z,59.37
2022-10-17T06:18:23.792Z,63.37
2022-10-17T06:20:52.345Z,59.77
2022-10-17T06:23:22.291Z,61.57
2022-10-17T06:26:01.049Z,58.47
2022-10-17T06:28:32.791Z,55.27
2022-10-17T06:31:05.079Z,61.67
2022-10-17T06:33:33.940Z,59.23
2022-10-17T06:36:04.465Z,62.50
2022-10-17T06:38:34.799Z,61.07
2022-10-17T06:41:08.637Z,57.93
2022-10-17T06:43:39.753Z,59.93
2022-10-17T06:46:29.905Z,60.63
2022-10-17T06:49:01.707Z,57.87
2022-10-17T06:51:42.632Z,61.80
2022-10-17T06:54:14.242Z,58.53
2022-10-17T06:57:09.280Z,62.40
2022-10-17T07:00:02.546Z,58.50
2022-10-17T07:02:40.460Z,53.73
2022-10-17T07:05:09.771Z,53.37
2022-10-17T07:07:41.436Z,50.10
2022-10-17T07:10:13.300Z,50.33
2022-10-17T07:12:45.000Z,48.87
2022-10-17T07:15:15.330Z,46.27
2022-10-17T07:17:44.691Z,48.53
2022-10-17T07:20:13.444Z,44.13
2022-10-17T07:22:43.277Z,45.27
2022-10-17T07:25:11.773Z,43.20
2022-10-17T07:27:50.006Z,42.43
2022-10-17T07:30:21.574Z,41.93
2022-10-17T07:32:56.122Z,42.23
2022-10-17T07:35:24.915Z,39.23
2022-10-17T07:37:53.989Z,39.63
2022-10-17T07:40:23.323Z,43.43
2022-10-17T07:42:52.298Z,37.97
2022-10-17T07:45:23.836Z,36.07
2022-10-17T07:47:56.457Z,40.47
2022-10-17T07:50:25.273Z,38.33
2022-10-17T07:52:54.331Z,33.17
2022-10-17T07:55:22.899Z,31.40
2022-10-17T07:57:51.598Z,32.13
2022-10-17T08:00:20.442Z,32.10
2022-10-17T08:02:50.345Z,31.33
2022-10-17T08:05:18.813Z,32.63
2022-10-17T08:07:47.329Z,31.73
2022-10-17T08:10:17.424Z,38.40
2022-10-17T08:12:45.928Z,31.00
2022-10-17T08:15:14.633Z,28.67
2022-10-17T08:17:43.138Z,30.17
2022-10-17T08:20:13.673Z,31.33
2022-10-17T08:22:42.321Z,28.60
2022-10-17T08:25:11.286Z,33.30
2022-10-17T08:27:39.880Z,31.80
2022-10-17T08:30:09.669Z,29.95
2022-10-17T08:32:38.274Z,29.63
2022-10-17T08:35:07.584Z,29.25
2022-10-17T08:37:37.510Z,29.20
2022-10-17T08:40:07.014Z,28.58
2022-10-17T08:43:00.525Z,30.65
2022-10-17T08:45:33.842Z,27.48
2022-10-17T08:48:07.722Z,27.13
2022-10-17T08:50:41.514Z,25.63
2022-10-17T08:53:19.142Z,28.15
2022-10-17T08:55:49.916Z,26.40
2022-10-17T08:58:21.859Z,26.65
2022-10-17T09:01:01.009Z,25.38
2022-10-17T09:03:49.819Z,27.65
2022-10-17T09:06:24.509Z,24.23
2022-10-17T09:09:07.286Z,26.73
2022-10-17T09:11:46.228Z,23.33
2022-10-17T09:14:32.446Z,23.83
2022-10-17T09:17:15.810Z,23.13
2022-10-17T09:19:50.252Z,24.48
2022-10-17T09:22:22.926Z,26.17
2022-10-17T09:24:56.939Z,22.70
2022-10-17T09:27:29.279Z,23.35
2022-10-17T09:30:43.510Z,21.48
2022-10-17T09:33:35.184Z,20.48
2022-10-17T09:36:11.937Z,23.40
2022-10-17T09:38:43.270Z,22.48
2022-10-17T09:41:49.208Z,23.75
2022-10-17T09:44:21.865Z,21.95
2022-10-17T09:47:03.850Z,27.77
2022-10-17T09:49:34.398Z,22.77
2022-10-17T09:52:05.060Z,21.35
2022-10-17T09:54:42.410Z,21.17
2022-10-17T09:57:14.369Z,18.63
2022-10-17T09:59:45.098Z,17.13
2022-10-17T10:02:19.918Z,17.63
2022-10-17T10:05:16.333Z,18.50
2022-10-17T10:07:47.737Z,17.10
2022-10-17T10:10:27.851Z,21.55
2022-10-17T10:13:07.590Z,16.08
2022-10-17T10:15:41.129Z,16.08
2022-10-17T10:18:32.539Z,31.98
2022-10-17T10:21:08.053Z,17.88
2022-10-17T10:23:40.110Z,17.08
2022-10-17T10:26:39.177Z,16.90
2022-10-17T10:29:22.582Z,17.10
2022-10-17T10:31:52.242Z,16.17
2022-10-17T10:34:24.491Z,16.33
2022-10-17T10:37:03.635Z,21.75
2022-10-17T10:39:47.119Z,19.85
2022-10-17T10:42:23.973Z,14.52
2022-10-17T10:44:56.952Z,16.23
2022-10-17T10:47:28.435Z,17.70
2022-10-17T10:50:18.452Z,15.65
2022-10-17T10:52:51.722Z,14.32
2022-10-17T10:55:27.228Z,15.43
2022-10-17T10:58:02.130Z,15.35
2022-10-17T11:00:35.455Z,13.40
2022-10-17T11:03:14.799Z,13.32
2022-10-17T11:05:47.386Z,14.30
2022-10-17T11:08:24.830Z,14.38
2022-10-17T11:11:09.117Z,13.55
2022-10-17T11:13:44.836Z,13.27
2022-10-17T11:16:35.595Z,15.77
2022-10-17T11:19:14.698Z,13.65
2022-10-17T11:21:49.215Z,15.32
2022-10-17T11:24:24.739Z,11.23
2022-10-17T11:26:57.783Z,13.30
2022-10-17T11:29:30.130Z,13.32
2022-10-17T11:32:04.508Z,16.00
2022-10-17T11:34:37.456Z,10.32
2022-10-17T11:37:13.473Z,12.50
2022-10-17T11:39:48.636Z,12.20
2022-10-17T11:42:22.405Z,17.70
2022-10-17T11:44:57.355Z,11.30
2022-10-17T11:47:37.266Z,11.75
2022-10-17T11:53:13.274Z,15.85
2022-10-17T11:55:43.148Z,12.93
2022-10-17T12:01:15.135Z,13.95
2022-10-17T12:03:53.772Z,14.25
2022-10-17T12:06:42.080Z,11.77
2022-10-17T12:09:18.929Z,11.02
2022-10-17T12:11:54.145Z,11.75
2022-10-17T12:14:38.069Z,9.98
2022-10-17T12:17:21.442Z,10.32
2022-10-17T12:19:51.371Z,10.13
2022-10-17T12:22:26.108Z,10.73
2022-10-17T12:25:00.357Z,8.73
2022-10-17T12:27:42.400Z,11.05
2022-10-17T12:30:25.766Z,13.60
2022-10-17T12:33:08.150Z,9.40
2022-10-17T12:35:39.433Z,9.90
2022-10-17T12:38:26.114Z,8.45
2022-10-17T12:41:06.297Z,8.82
2022-10-17T12:46:51.101Z,10.18
2022-10-17T12:49:45.552Z,11.07
2022-10-17T12:55:26.553Z,13.02
2022-10-17T12:57:59.052Z,9.38
2022-10-17T13:00:35.215Z,7.68
2022-10-17T13:03:07.836Z,10.82
2022-10-17T13:05:39.663Z,7.45
2022-10-17T13:08:18.646Z,8.40
2022-10-17T13:10:52.393Z,8.80
2022-10-17T13:13:24.456Z,7.80
2022-10-17T13:15:55.917Z,12.52
2022-10-17T13:18:27.131Z,7.60
2022-10-17T13:21:00.875Z,10.35
2022-10-17T13:23:34.271Z,9.70
2022-10-17T13:26:09.065Z,12.02
2022-10-17T13:28:39.587Z,10.55
2022-10-17T13:31:08.927Z,11.65
2022-10-17T13:33:39.956Z,9.43
2022-10-17T13:36:15.718Z,8.63
2022-10-17T13:38:45.660Z,11.85
2022-10-17T13:41:35.744Z,9.95
2022-10-17T13:44:12.657Z,12.00
2022-10-17T13:46:41.835Z,12.05
2022-10-17T13:49:16.265Z,12.38
2022-10-17T13:51:47.224Z,11.77
2022-10-17T13:54:32.637Z,9.63
2022-10-17T13:57:02.807Z,9.20
2022-10-17T13:59:38.936Z,13.43
2022-10-17T14:02:12.662Z,15.65
2022-10-17T14:05:11.662Z,20.20
2022-10-17T14:07:58.067Z,11.65
2022-10-17T14:10:28.783Z,15.48
2022-10-17T14:12:57.962Z,11.30
2022-10-17T14:15:30.271Z,19.98
2022-10-17T14:18:05.457Z,9.90
2022-10-17T14:23:33.495Z,11.95
2022-10-17T14:26:09.827Z,10.50
2022-10-17T14:28:39.161Z,9.23
2022-10-17T14:31:15.115Z,12.93
2022-10-17T14:33:50.509Z,12.13
2022-10-17T14:36:20.999Z,10.38
2022-10-17T14:38:53.270Z,20.10
2022-10-17T14:41:42.530Z,16.13
2022-10-17T14:44:27.991Z,15.45
2022-10-17T14:47:00.251Z,14.40
2022-10-17T14:49:36.700Z,16.40
2022-10-17T14:52:28.269Z,14.98
2022-10-17T14:54:58.069Z,15.27
2022-10-17T14:57:35.847Z,13.40
2022-10-17T15:00:04.895Z,12.18
2022-10-17T15:02:33.619Z,15.02
2022-10-17T15:05:02.561Z,16.92
2022-10-17T15:07:31.242Z,19.50
2022-10-17T15:09:59.729Z,16.02
2022-10-17T15:12:29.800Z,14.80
2022-10-17T15:14:58.824Z,14.18
2022-10-17T15:17:30.120Z,16.33
2022-10-17T15:19:59.573Z,13.75
2022-10-17T15:22:28.373Z,15.05
2022-10-17T15:24:57.078Z,25.77
2022-10-17T15:27:31.452Z,16.25
2022-10-17T15:30:01.623Z,21.60
2022-10-17T15:32:30.115Z,13.73
2022-10-17T15:34:58.605Z,18.05
2022-10-17T15:37:27.231Z,41.88
2022-10-17T15:39:56.639Z,49.25
2022-10-17T15:42:29.881Z,102.47
2022-10-17T15:44:59.381Z,169.73
2022-10-17T15:47:33.321Z,162.10
2022-10-17T15:50:02.883Z,109.70
2022-10-17T15:52:31.363Z,59.95
2022-10-17T15:55:02.515Z,37.67
2022-10-17T15:57:45.293Z,25.23
2022-10-17T16:00:17.224Z,28.88
2022-10-17T16:02:47.375Z,34.58
2022-10-17T16:05:17.850Z,28.73
2022-10-17T16:07:46.908Z,27.60
2022-10-17T16:10:16.012Z,25.55
2022-10-17T16:12:45.202Z,21.77
2022-10-17T16:15:16.450Z,28.35
2022-10-17T16:17:46.551Z,23.92
2022-10-17T16:20:15.137Z,24.02
2022-10-17T16:22:45.547Z,19.65
2022-10-17T16:25:20.395Z,23.00
2022-10-17T16:27:50.030Z,21.92
2022-10-17T16:30:19.596Z,25.30
2022-10-17T16:32:49.874Z,20.50
2022-10-17T16:35:20.258Z,21.45
2022-10-17T16:37:48.945Z,24.85
2022-10-17T16:40:17.879Z,22.58
2022-10-17T16:42:46.426Z,22.00
2022-10-17T16:45:18.114Z,21.52
2022-10-17T16:47:46.897Z,23.02
2022-10-17T16:50:17.053Z,24.45
2022-10-17T16:52:45.548Z,25.35
2022-10-17T16:55:14.132Z,22.65
2022-10-17T17:00:14.302Z,27.08
2022-10-17T17:02:43.506Z,23.17
2022-10-17T17:05:12.614Z,18.83
2022-10-17T17:07:44.249Z,19.48
2022-10-17T17:10:13.121Z,22.13
2022-10-17T17:12:41.945Z,19.77
2022-10-17T17:15:10.744Z,20.23
2022-10-17T17:17:56.144Z,21.13
2022-10-17T17:20:25.693Z,22.50
2022-10-17T17:22:56.430Z,19.63
2022-10-17T17:25:25.036Z,22.05
2022-10-17T17:27:53.758Z,27.48
2022-10-17T17:30:22.273Z,22.63
2022-10-17T17:32:51.298Z,23.88
2022-10-17T17:35:20.014Z,27.52
2022-10-17T17:37:48.817Z,19.88
2022-10-17T17:40:19.313Z,24.30
2022-10-17T17:42:48.245Z,25.50
2022-10-17T17:45:17.198Z,25.40
2022-10-17T17:47:46.507Z,22.23
2022-10-17T17:50:15.370Z,23.50
2022-10-17T17:52:46.918Z,25.83
2022-10-17T17:55:15.786Z,26.55
2022-10-17T17:57:46.211Z,23.67
2022-10-17T18:00:17.382Z,27.27
2022-10-17T18:02:47.677Z,24.80
2022-10-17T18:05:16.646Z,24.80
2022-10-17T18:07:45.214Z,25.60
2022-10-17T18:12:46.281Z,24.57
2022-10-17T18:15:15.257Z,33.03
2022-10-17T18:17:45.350Z,28.67
2022-10-17T18:20:15.462Z,28.60
2022-10-17T18:22:44.250Z,25.00
2022-10-17T18:25:13.425Z,26.00
2022-10-17T18:27:42.511Z,27.00
2022-10-17T18:30:14.227Z,24.20
2022-10-17T18:32:43.058Z,24.60
2022-10-17T18:35:12.106Z,24.20
2022-10-17T18:40:15.675Z,28.03
2022-10-17T18:42:44.764Z,30.03
2022-10-17T18:45:15.756Z,30.53
2022-10-17T18:47:47.174Z,29.63
2022-10-17T18:50:15.994Z,30.90
2022-10-17T18:52:45.106Z,29.67
2022-10-17T18:55:13.873Z,27.03
2022-10-17T18:57:43.881Z,27.37
2022-10-17T19:00:16.310Z,27.97
2022-10-17T19:02:45.360Z,29.63
2022-10-17T19:05:14.147Z,30.17
2022-10-17T19:07:42.977Z,28.47
2022-10-17T19:10:11.691Z,34.97
2022-10-17T19:12:40.353Z,30.13
2022-10-17T19:15:09.836Z,31.50
2022-10-17T19:17:39.924Z,27.97
2022-10-17T19:20:09.979Z,30.37
2022-10-17T19:22:38.690Z,29.37
2022-10-17T19:25:08.037Z,29.67
2022-10-17T19:27:36.921Z,32.40
2022-10-17T19:30:06.601Z,36.37
2022-10-17T19:32:38.517Z,38.70
2022-10-17T19:35:11.259Z,35.73
2022-10-17T19:37:40.095Z,37.50
2022-10-17T19:40:10.248Z,34.53
2022-10-17T19:42:40.085Z,31.60
2022-10-17T19:45:11.617Z,35.37
2022-10-17T19:47:40.856Z,32.27
2022-10-17T19:50:11.393Z,33.40
2022-10-17T19:52:41.389Z,40.20
2022-10-17T19:55:10.535Z,39.80
2022-10-17T19:57:40.290Z,35.27
2022-10-17T20:00:09.974Z,37.30
2022-10-17T20:02:40.117Z,37.47
2022-10-17T20:05:18.595Z,35.47
2022-10-17T20:07:48.055Z,35.13
2022-10-17T20:10:19.083Z,37.60
2022-10-17T20:12:49.573Z,35.77
2022-10-17T20:15:18.422Z,43.03
2022-10-17T20:17:47.724Z,40.17
2022-10-17T20:20:18.960Z,37.77
2022-10-17T20:22:47.691Z,36.90
2022-10-17T20:25:16.475Z,35.60
2022-10-17T20:27:45.221Z,35.03
2022-10-17T20:30:14.505Z,38.13
2022-10-17T20:32:43.354Z,37.70
2022-10-17T20:35:11.954Z,36.23
2022-10-17T20:37:42.825Z,35.33
2022-10-17T20:43:01.307Z,36.67
2022-10-17T20:45:45.077Z,38.53
2022-10-17T20:48:20.996Z,38.37
2022-10-17T20:50:50.679Z,35.33
2022-10-17T20:53:37.871Z,39.30
2022-10-17T20:56:12.642Z,35.13
2022-10-17T20:58:43.581Z,41.30
2022-10-17T21:01:12.877Z,41.07
2022-10-17T21:03:45.596Z,38.00
2022-10-17T21:06:16.711Z,41.03
2022-10-17T21:08:47.735Z,36.33
2022-10-17T21:11:20.284Z,39.83
2022-10-17T21:13:55.926Z,40.53
2022-10-17T21:16:25.085Z,38.73
2022-10-17T21:18:54.074Z,36.23
2022-10-17T21:21:24.796Z,38.57
2022-10-17T21:23:57.137Z,41.60
2022-10-17T21:26:27.111Z,43.00
2022-10-17T21:28:56.635Z,35.87
2022-10-17T21:31:27.242Z,33.27
2022-10-17T21:33:58.239Z,37.40
2022-10-17T21:36:29.136Z,32.77
2022-10-17T21:39:02.304Z,34.97
2022-10-17T21:41:31.751Z,35.50
2022-10-17T21:44:05.209Z,34.40
2022-10-17T21:46:34.979Z,33.37
2022-10-17T21:49:04.163Z,31.90
2022-10-17T21:51:33.050Z,33.30
2022-10-17T21:54:05.682Z,33.50
2022-10-17T21:56:36.527Z,33.17
2022-10-17T21:59:08.792Z,30.67
2022-10-17T22:01:39.575Z,31.77
2022-10-17T22:04:11.727Z,33.00
2022-10-17T22:06:42.659Z,31.63
2022-10-17T22:09:15.060Z,32.43
2022-10-17T22:11:47.244Z,34.87
2022-10-17T22:14:17.605Z,30.70
2022-10-17T22:16:46.958Z,27.87
2022-10-17T22:19:20.245Z,33.03
2022-10-17T22:21:49.293Z,29.17
2022-10-17T22:26:54.875Z,33.27
2022-10-17T22:29:23.958Z,33.10
2022-10-17T22:31:52.784Z,31.00
2022-10-17T22:34:22.356Z,27.73
2022-10-17T22:36:52.021Z,31.27
2022-10-17T22:39:23.479Z,31.87
2022-10-17T22:41:52.344Z,31.37
2022-10-17T22:44:21.158Z,27.30
2022-10-17T22:46:50.004Z,29.07
2022-10-17T22:49:18.855Z,29.40
2022-10-17T22:51:47.483Z,29.73
2022-10-17T22:54:16.332Z,33.07
2022-10-17T22:56:47.896Z,27.60
2022-10-17T22:59:16.585Z,29.10
2022-10-17T23:01:45.478Z,29.20
2022-10-17T23:04:14.385Z,35.40
2022-10-17T23:06:43.264Z,28.47
2022-10-17T23:09:13.645Z,30.80
2022-10-17T23:11:42.646Z,32.97
2022-10-17T23:14:13.007Z,26.73
2022-10-17T23:16:42.624Z,29.53
2022-10-17T23:19:13.456Z,29.23
2022-10-17T23:21:42.265Z,27.00
2022-10-17T23:24:10.928Z,31.57
2022-10-17T23:26:40.538Z,27.83
2022-10-17T23:29:09.413Z,30.33
2022-10-17T23:31:39.679Z,26.23
2022-10-17T23:34:08.472Z,30.60
2022-10-17T23:36:38.614Z,27.47
2022-10-17T23:39:07.979Z,28.03
2022-10-17T23:41:36.888Z,34.60
2022-10-17T23:44:06.786Z,30.37
2022-10-17T23:46:35.558Z,28.73
2022-10-17T23:49:06.831Z,31.73
2022-10-17T23:51:40.077Z,29.07
2022-10-17T23:54:11.686Z,34.33
2022-10-17T23:56:40.811Z,31.90
2022-10-17T23:59:10.340Z,30.33
